sensor_id;sensor_type;location;lat;lon;timestamp;P1;P2;P0
70436;PMS5003;57877;39.750;-104.894;2024-01-16T00:00:02;1;0;
70436;PMS5003;57877;39.750;-104.894;2024-01-16T00:02:27;0;0;
70436;PMS5003;57877;39.750;-104.894;2024-01-16T00:04:53;0;0;
70436;PMS5003;57877;39.750;-104.894;2024-01-16T00:07:18;0;0;
70436;PMS5003;57877;39.750;-104.894;2024-01-16T00:09:43;1;0;
70436;PMS5003;57877;39.750;-104.894;2024-01-16T00:12:09;0;0;
70436;PMS5003;57877;39.750;-104.894;2024-01-16T00:14:35;2;1;
70436;PMS5003;57877;39.750;-104.894;2024-01-16T00:17:00;1;1;
70436;PMS5003;57877;39.750;-104.894;2024-01-16T00:19:25;2;2;
70436;PMS5003;57877;39.750;-104.894;2024-01-16T00:21:51;1;1;
70436;PMS5003;57877;39.750;-104.894;2024-01-16T00:24:16;1;1;
70436;PMS5003;57877;39.750;-104.894;2024-01-16T00:26:41;2;1;
70436;PMS5003;57877;39.750;-104.894;2024-01-16T00:29:07;1;1;
70436;PMS5003;57877;39.750;-104.894;2024-01-16T00:31:32;1;1;
70436;PMS5003;57877;39.750;-104.894;2024-01-16T00:33:58;2;2;
70436;PMS5003;57877;39.750;-104.894;2024-01-16T00:36:23;4;3;
70436;PMS5003;57877;39.750;-104.894;2024-01-16T00:38:49;3;3;
70436;PMS5003;57877;39.750;-104.894;2024-01-16T00:41:14;3;2;
70436;PMS5003;57877;39.750;-104.894;2024-01-16T00:43:40;3;2;
70436;PMS5003;57877;39.750;-104.894;2024-01-16T00:46:05;3;3;
70436;PMS5003;57877;39.750;-104.894;2024-01-16T00:48:30;3;3;
70436;PMS5003;57877;39.750;-104.894;2024-01-16T00:50:56;3;3;
70436;PMS5003;57877;39.750;-104.894;2024-01-16T00:53:21;4;4;
70436;PMS5003;57877;39.750;-104.894;2024-01-16T00:55:47;3;3;
70436;PMS5003;57877;39.750;-104.894;2024-01-16T00:58:12;3;3;
70436;PMS5003;57877;39.750;-104.894;2024-01-16T01:00:38;3;3;
70436;PMS5003;57877;39.750;-104.894;2024-01-16T01:03:03;4;3;
70436;PMS5003;57877;39.750;-104.894;2024-01-16T01:05:29;4;4;
70436;PMS5003;57877;39.750;-104.894;2024-01-16T01:07:54;6;6;
70436;PMS5003;57877;39.750;-104.894;2024-01-16T01:10:20;7;6;
70436;PMS5003;57877;39.750;-104.894;2024-01-16T01:12:45;6;5;
70436;PMS5003;57877;39.750;-104.894;2024-01-16T01:15:11;12;8;
70436;PMS5003;57877;39.750;-104.894;2024-01-16T01:17:36;12;11;
70436;PMS5003;57877;39.750;-104.894;2024-01-16T01:20:01;5;3;
70436;PMS5003;57877;39.750;-104.894;2024-01-16T01:22:27;6;5;
70436;PMS5003;57877;39.750;-104.894;2024-01-16T01:24:52;5;4;
70436;PMS5003;57877;39.750;-104.894;2024-01-16T01:27:18;6;6;
70436;PMS5003;57877;39.750;-104.894;2024-01-16T01:29:43;4;4;
70436;PMS5003;57877;39.750;-104.894;2024-01-16T01:32:09;4;4;
70436;PMS5003;57877;39.750;-104.894;2024-01-16T01:34:34;4;3;
70436;PMS5003;57877;39.750;-104.894;2024-01-16T01:37:00;2;2;
70436;PMS5003;57877;39.750;-104.894;2024-01-16T01:39:25;2;2;
70436;PMS5003;57877;39.750;-104.894;2024-01-16T01:41:51;3;3;
70436;PMS5003;57877;39.750;-104.894;2024-01-16T01:44:16;2;2;
70436;PMS5003;57877;39.750;-104.894;2024-01-16T01:46:42;2;2;
70436;PMS5003;57877;39.750;-104.894;2024-01-16T01:49:07;2;2;
70436;PMS5003;57877;39.750;-104.894;2024-01-16T01:51:33;2;2;
70436;PMS5003;57877;39.750;-104.894;2024-01-16T01:53:58;5;5;
70436;PMS5003;57877;39.750;-104.894;2024-01-16T01:56:24;5;5;
70436;PMS5003;57877;39.750;-104.894;2024-01-16T01:58:52;6;6;
70436;PMS5003;57877;39.750;-104.894;2024-01-16T02:01:15;4;4;
70436;PMS5003;57877;39.750;-104.894;2024-01-16T02:03:41;4;3;
70436;PMS5003;57877;39.750;-104.894;2024-01-16T02:06:06;4;4;
70436;PMS5003;57877;39.750;-104.894;2024-01-16T02:08:32;3;2;
70436;PMS5003;57877;39.750;-104.894;2024-01-16T02:10:57;11;9;
70436;PMS5003;57877;39.750;-104.894;2024-01-16T02:13:23;5;5;
70436;PMS5003;57877;39.750;-104.894;2024-01-16T02:15:48;7;6;
70436;PMS5003;57877;39.750;-104.894;2024-01-16T02:18:13;5;5;
70436;PMS5003;57877;39.750;-104.894;2024-01-16T02:20:39;5;5;
70436;PMS5003;57877;39.750;-104.894;2024-01-16T02:23:05;15;14;
70436;PMS5003;57877;39.750;-104.894;2024-01-16T02:25:30;8;8;
70436;PMS5003;57877;39.750;-104.894;2024-01-16T02:27:56;8;6;
70436;PMS5003;57877;39.750;-104.894;2024-01-16T02:30:21;8;7;
70436;PMS5003;57877;39.750;-104.894;2024-01-16T02:32:47;11;8;
70436;PMS5003;57877;39.750;-104.894;2024-01-16T02:35:12;8;8;
70436;PMS5003;57877;39.750;-104.894;2024-01-16T02:37:38;11;9;
70436;PMS5003;57877;39.750;-104.894;2024-01-16T02:40:03;8;8;
70436;PMS5003;57877;39.750;-104.894;2024-01-16T02:42:29;13;12;
70436;PMS5003;57877;39.750;-104.894;2024-01-16T02:44:54;14;13;
70436;PMS5003;57877;39.750;-104.894;2024-01-16T02:47:20;14;14;
70436;PMS5003;57877;39.750;-104.894;2024-01-16T02:49:45;14;14;
70436;PMS5003;57877;39.750;-104.894;2024-01-16T02:52:11;14;13;
70436;PMS5003;57877;39.750;-104.894;2024-01-16T02:54:36;14;13;
70436;PMS5003;57877;39.750;-104.894;2024-01-16T02:57:02;15;14;
70436;PMS5003;57877;39.750;-104.894;2024-01-16T02:59:28;15;13;
70436;PMS5003;57877;39.750;-104.894;2024-01-16T03:01:53;15;15;
70436;PMS5003;57877;39.750;-104.894;2024-01-16T03:04:19;14;13;
70436;PMS5003;57877;39.750;-104.894;2024-01-16T03:06:44;14;13;
70436;PMS5003;57877;39.750;-104.894;2024-01-16T03:09:10;14;13;
70436;PMS5003;57877;39.750;-104.894;2024-01-16T03:11:35;14;14;
70436;PMS5003;57877;39.750;-104.894;2024-01-16T03:14:01;13;13;
70436;PMS5003;57877;39.750;-104.894;2024-01-16T03:16:27;16;14;
70436;PMS5003;57877;39.750;-104.894;2024-01-16T03:18:52;14;13;
70436;PMS5003;57877;39.750;-104.894;2024-01-16T03:21:17;14;13;
70436;PMS5003;57877;39.750;-104.894;2024-01-16T03:23:43;16;13;
70436;PMS5003;57877;39.750;-104.894;2024-01-16T03:26:12;15;13;
70436;PMS5003;57877;39.750;-104.894;2024-01-16T03:28:34;16;15;
70436;PMS5003;57877;39.750;-104.894;2024-01-16T03:31:00;13;13;
70436;PMS5003;57877;39.750;-104.894;2024-01-16T03:33:25;14;13;
70436;PMS5003;57877;39.750;-104.894;2024-01-16T03:35:51;13;13;
70436;PMS5003;57877;39.750;-104.894;2024-01-16T03:38:17;15;13;
70436;PMS5003;57877;39.750;-104.894;2024-01-16T03:40:42;13;11;
70436;PMS5003;57877;39.750;-104.894;2024-01-16T03:43:08;13;13;
70436;PMS5003;57877;39.750;-104.894;2024-01-16T03:45:33;13;13;
70436;PMS5003;57877;39.750;-104.894;2024-01-16T03:47:59;13;12;
70436;PMS5003;57877;39.750;-104.894;2024-01-16T03:50:24;13;12;
70436;PMS5003;57877;39.750;-104.894;2024-01-16T03:52:50;8;8;
70436;PMS5003;57877;39.750;-104.894;2024-01-16T03:55:16;5;5;
70436;PMS5003;57877;39.750;-104.894;2024-01-16T03:57:41;6;5;
70436;PMS5003;57877;39.750;-104.894;2024-01-16T04:00:07;8;8;
70436;PMS5003;57877;39.750;-104.894;2024-01-16T04:02:32;10;6;
70436;PMS5003;57877;39.750;-104.894;2024-01-16T04:04:58;4;4;
70436;PMS5003;57877;39.750;-104.894;2024-01-16T04:07:23;3;3;
70436;PMS5003;57877;39.750;-104.894;2024-01-16T04:09:49;4;3;
70436;PMS5003;57877;39.750;-104.894;2024-01-16T04:12:15;2;2;
70436;PMS5003;57877;39.750;-104.894;2024-01-16T04:14:40;3;3;
70436;PMS5003;57877;39.750;-104.894;2024-01-16T04:17:06;17;17;
70436;PMS5003;57877;39.750;-104.894;2024-01-16T04:19:31;61;61;
70436;PMS5003;57877;39.750;-104.894;2024-01-16T04:21:57;116;115;
70436;PMS5003;57877;39.750;-104.894;2024-01-16T04:24:22;112;112;
70436;PMS5003;57877;39.750;-104.894;2024-01-16T04:26:48;110;109;
70436;PMS5003;57877;39.750;-104.894;2024-01-16T04:29:13;53;52;
70436;PMS5003;57877;39.750;-104.894;2024-01-16T04:31:39;5;5;
70436;PMS5003;57877;39.750;-104.894;2024-01-16T04:34:05;2;2;
70436;PMS5003;57877;39.750;-104.894;2024-01-16T04:36:30;2;2;
70436;PMS5003;57877;39.750;-104.894;2024-01-16T04:38:56;2;2;
70436;PMS5003;57877;39.750;-104.894;2024-01-16T04:41:22;1;1;
70436;PMS5003;57877;39.750;-104.894;2024-01-16T04:43:47;1;1;
70436;PMS5003;57877;39.750;-104.894;2024-01-16T04:46:14;2;1;
70436;PMS5003;57877;39.750;-104.894;2024-01-16T04:48:38;2;2;
70436;PMS5003;57877;39.750;-104.894;2024-01-16T04:51:04;2;0;
70436;PMS5003;57877;39.750;-104.894;2024-01-16T04:53:30;2;2;
70436;PMS5003;57877;39.750;-104.894;2024-01-16T04:55:55;2;2;
70436;PMS5003;57877;39.750;-104.894;2024-01-16T04:58:21;0;0;
70436;PMS5003;57877;39.750;-104.894;2024-01-16T05:00:47;0;0;
70436;PMS5003;57877;39.750;-104.894;2024-01-16T05:03:12;1;1;
70436;PMS5003;57877;39.750;-104.894;2024-01-16T05:05:38;1;1;
70436;PMS5003;57877;39.750;-104.894;2024-01-16T05:08:03;2;2;
70436;PMS5003;57877;39.750;-104.894;2024-01-16T05:10:29;1;1;
70436;PMS5003;57877;39.750;-104.894;2024-01-16T05:12:54;1;0;
70436;PMS5003;57877;39.750;-104.894;2024-01-16T05:15:20;0;0;
70436;PMS5003;57877;39.750;-104.894;2024-01-16T05:17:46;2;1;
70436;PMS5003;57877;39.750;-104.894;2024-01-16T05:20:11;0;0;
70436;PMS5003;57877;39.750;-104.894;2024-01-16T05:22:37;1;1;
70436;PMS5003;57877;39.750;-104.894;2024-01-16T05:25:03;1;0;
70436;PMS5003;57877;39.750;-104.894;2024-01-16T05:27:28;0;0;
70436;PMS5003;57877;39.750;-104.894;2024-01-16T05:29:54;1;0;
70436;PMS5003;57877;39.750;-104.894;2024-01-16T05:32:19;0;0;
70436;PMS5003;57877;39.750;-104.894;2024-01-16T05:34:45;1;0;
70436;PMS5003;57877;39.750;-104.894;2024-01-16T05:37:11;0;0;
70436;PMS5003;57877;39.750;-104.894;2024-01-16T05:39:36;2;2;
70436;PMS5003;57877;39.750;-104.894;2024-01-16T05:42:02;0;0;
70436;PMS5003;57877;39.750;-104.894;2024-01-16T05:44:27;0;0;
70436;PMS5003;57877;39.750;-104.894;2024-01-16T05:46:53;0;0;
70436;PMS5003;57877;39.750;-104.894;2024-01-16T05:49:18;0;0;
70436;PMS5003;57877;39.750;-104.894;2024-01-16T05:51:44;1;0;
70436;PMS5003;57877;39.750;-104.894;2024-01-16T05:54:10;1;1;
70436;PMS5003;57877;39.750;-104.894;2024-01-16T05:56:35;1;1;
70436;PMS5003;57877;39.750;-104.894;2024-01-16T05:59:01;0;0;
70436;PMS5003;57877;39.750;-104.894;2024-01-16T06:01:27;0;0;
70436;PMS5003;57877;39.750;-104.894;2024-01-16T06:03:52;0;0;
70436;PMS5003;57877;39.750;-104.894;2024-01-16T06:06:18;0;0;
70436;PMS5003;57877;39.750;-104.894;2024-01-16T06:08:43;0;0;
70436;PMS5003;57877;39.750;-104.894;2024-01-16T06:11:09;0;0;
70436;PMS5003;57877;39.750;-104.894;2024-01-16T06:13:35;0;0;
70436;PMS5003;57877;39.750;-104.894;2024-01-16T06:16:00;0;0;
70436;PMS5003;57877;39.750;-104.894;2024-01-16T06:18:26;0;0;
70436;PMS5003;57877;39.750;-104.894;2024-01-16T06:20:52;0;0;
70436;PMS5003;57877;39.750;-104.894;2024-01-16T06:23:17;0;0;
70436;PMS5003;57877;39.750;-104.894;2024-01-16T06:25:43;0;0;
70436;PMS5003;57877;39.750;-104.894;2024-01-16T06:28:08;0;0;
70436;PMS5003;57877;39.750;-104.894;2024-01-16T06:30:34;0;0;
70436;PMS5003;57877;39.750;-104.894;2024-01-16T06:33:00;0;0;
70436;PMS5003;57877;39.750;-104.894;2024-01-16T06:35:25;0;0;
70436;PMS5003;57877;39.750;-104.894;2024-01-16T06:37:51;0;0;
70436;PMS5003;57877;39.750;-104.894;2024-01-16T06:40:16;0;0;
70436;PMS5003;57877;39.750;-104.894;2024-01-16T06:42:42;0;0;
70436;PMS5003;57877;39.750;-104.894;2024-01-16T06:45:08;0;0;
70436;PMS5003;57877;39.750;-104.894;2024-01-16T06:47:33;0;0;
70436;PMS5003;57877;39.750;-104.894;2024-01-16T06:49:59;0;0;
70436;PMS5003;57877;39.750;-104.894;2024-01-16T06:52:25;0;0;
70436;PMS5003;57877;39.750;-104.894;2024-01-16T06:54:50;0;0;
70436;PMS5003;57877;39.750;-104.894;2024-01-16T06:57:16;0;0;
70436;PMS5003;57877;39.750;-104.894;2024-01-16T06:59:42;0;0;
70436;PMS5003;57877;39.750;-104.894;2024-01-16T07:02:07;0;0;
70436;PMS5003;57877;39.750;-104.894;2024-01-16T07:04:33;0;0;
70436;PMS5003;57877;39.750;-104.894;2024-01-16T07:06:58;0;0;
70436;PMS5003;57877;39.750;-104.894;2024-01-16T07:09:24;0;0;
70436;PMS5003;57877;39.750;-104.894;2024-01-16T07:11:50;0;0;
70436;PMS5003;57877;39.750;-104.894;2024-01-16T07:14:15;0;0;
70436;PMS5003;57877;39.750;-104.894;2024-01-16T07:16:41;0;0;
70436;PMS5003;57877;39.750;-104.894;2024-01-16T07:19:07;0;0;
70436;PMS5003;57877;39.750;-104.894;2024-01-16T07:21:32;0;0;
70436;PMS5003;57877;39.750;-104.894;2024-01-16T07:23:58;0;0;
70436;PMS5003;57877;39.750;-104.894;2024-01-16T07:26:24;0;0;
70436;PMS5003;57877;39.750;-104.894;2024-01-16T07:28:49;0;0;
70436;PMS5003;57877;39.750;-104.894;2024-01-16T07:31:15;0;0;
70436;PMS5003;57877;39.750;-104.894;2024-01-16T07:33:40;0;0;
70436;PMS5003;57877;39.750;-104.894;2024-01-16T07:36:07;0;0;
70436;PMS5003;57877;39.750;-104.894;2024-01-16T07:38:31;0;0;
70436;PMS5003;57877;39.750;-104.894;2024-01-16T07:40:57;0;0;
70436;PMS5003;57877;39.750;-104.894;2024-01-16T07:43:23;0;0;
70436;PMS5003;57877;39.750;-104.894;2024-01-16T07:45:48;0;0;
70436;PMS5003;57877;39.750;-104.894;2024-01-16T07:48:14;0;0;
70436;PMS5003;57877;39.750;-104.894;2024-01-16T07:50:39;0;0;
70436;PMS5003;57877;39.750;-104.894;2024-01-16T07:53:05;0;0;
70436;PMS5003;57877;39.750;-104.894;2024-01-16T07:55:31;0;0;
70436;PMS5003;57877;39.750;-104.894;2024-01-16T07:57:56;0;0;
70436;PMS5003;57877;39.750;-104.894;2024-01-16T08:00:22;0;0;
70436;PMS5003;57877;39.750;-104.894;2024-01-16T08:02:48;0;0;
70436;PMS5003;57877;39.750;-104.894;2024-01-16T08:05:13;0;0;
70436;PMS5003;57877;39.750;-104.894;2024-01-16T08:07:39;0;0;
70436;PMS5003;57877;39.750;-104.894;2024-01-16T08:10:05;0;0;
70436;PMS5003;57877;39.750;-104.894;2024-01-16T08:12:30;0;0;
70436;PMS5003;57877;39.750;-104.894;2024-01-16T08:14:55;0;0;
70436;PMS5003;57877;39.750;-104.894;2024-01-16T08:17:21;0;0;
70436;PMS5003;57877;39.750;-104.894;2024-01-16T08:19:47;0;0;
70436;PMS5003;57877;39.750;-104.894;2024-01-16T08:22:12;0;0;
70436;PMS5003;57877;39.750;-104.894;2024-01-16T08:24:38;0;0;
70436;PMS5003;57877;39.750;-104.894;2024-01-16T08:27:04;0;0;
70436;PMS5003;57877;39.750;-104.894;2024-01-16T08:29:29;0;0;
70436;PMS5003;57877;39.750;-104.894;2024-01-16T08:31:55;0;0;
70436;PMS5003;57877;39.750;-104.894;2024-01-16T08:34:20;0;0;
70436;PMS5003;57877;39.750;-104.894;2024-01-16T08:36:46;0;0;
70436;PMS5003;57877;39.750;-104.894;2024-01-16T08:39:11;0;0;
70436;PMS5003;57877;39.750;-104.894;2024-01-16T08:41:37;0;0;
70436;PMS5003;57877;39.750;-104.894;2024-01-16T08:44:02;0;0;
70436;PMS5003;57877;39.750;-104.894;2024-01-16T08:46:28;0;0;
70436;PMS5003;57877;39.750;-104.894;2024-01-16T08:48:54;0;0;
70436;PMS5003;57877;39.750;-104.894;2024-01-16T08:51:19;0;0;
70436;PMS5003;57877;39.750;-104.894;2024-01-16T08:53:45;0;0;
70436;PMS5003;57877;39.750;-104.894;2024-01-16T08:56:10;42;42;
70436;PMS5003;57877;39.750;-104.894;2024-01-16T08:58:36;93;93;
70436;PMS5003;57877;39.750;-104.894;2024-01-16T09:01:02;123;123;
70436;PMS5003;57877;39.750;-104.894;2024-01-16T09:03:28;110;110;
70436;PMS5003;57877;39.750;-104.894;2024-01-16T09:05:53;0;0;
70436;PMS5003;57877;39.750;-104.894;2024-01-16T09:08:18;0;0;
70436;PMS5003;57877;39.750;-104.894;2024-01-16T09:10:44;0;0;
70436;PMS5003;57877;39.750;-104.894;2024-01-16T09:13:10;0;0;
70436;PMS5003;57877;39.750;-104.894;2024-01-16T09:15:35;0;0;
70436;PMS5003;57877;39.750;-104.894;2024-01-16T09:18:01;0;0;
70436;PMS5003;57877;39.750;-104.894;2024-01-16T09:20:27;0;0;
70436;PMS5003;57877;39.750;-104.894;2024-01-16T09:22:52;0;0;
70436;PMS5003;57877;39.750;-104.894;2024-01-16T09:25:18;0;0;
70436;PMS5003;57877;39.750;-104.894;2024-01-16T09:27:43;0;0;
70436;PMS5003;57877;39.750;-104.894;2024-01-16T09:30:09;0;0;
70436;PMS5003;57877;39.750;-104.894;2024-01-16T09:32:35;80;80;
70436;PMS5003;57877;39.750;-104.894;2024-01-16T09:35:01;0;0;
70436;PMS5003;57877;39.750;-104.894;2024-01-16T09:37:26;0;0;
70436;PMS5003;57877;39.750;-104.894;2024-01-16T09:39:52;0;0;
70436;PMS5003;57877;39.750;-104.894;2024-01-16T09:42:17;0;0;
70436;PMS5003;57877;39.750;-104.894;2024-01-16T09:44:43;0;0;
70436;PMS5003;57877;39.750;-104.894;2024-01-16T09:47:09;83;83;
70436;PMS5003;57877;39.750;-104.894;2024-01-16T09:49:34;121;121;
70436;PMS5003;57877;39.750;-104.894;2024-01-16T09:52:00;124;124;
70436;PMS5003;57877;39.750;-104.894;2024-01-16T09:54:26;122;122;
70436;PMS5003;57877;39.750;-104.894;2024-01-16T09:56:51;0;0;
70436;PMS5003;57877;39.750;-104.894;2024-01-16T09:59:17;0;0;
70436;PMS5003;57877;39.750;-104.894;2024-01-16T10:01:42;0;0;
70436;PMS5003;57877;39.750;-104.894;2024-01-16T10:04:08;0;0;
70436;PMS5003;57877;39.750;-104.894;2024-01-16T10:06:34;75;74;
70436;PMS5003;57877;39.750;-104.894;2024-01-16T10:08:59;143;143;
70436;PMS5003;57877;39.750;-104.894;2024-01-16T10:11:25;94;94;
70436;PMS5003;57877;39.750;-104.894;2024-01-16T10:13:51;149;149;
70436;PMS5003;57877;39.750;-104.894;2024-01-16T10:16:16;149;149;
70436;PMS5003;57877;39.750;-104.894;2024-01-16T10:18:42;0;0;
70436;PMS5003;57877;39.750;-104.894;2024-01-16T10:21:19;0;0;
70436;PMS5003;57877;39.750;-104.894;2024-01-16T10:23:33;0;0;
70436;PMS5003;57877;39.750;-104.894;2024-01-16T10:28:25;0;0;
70436;PMS5003;57877;39.750;-104.894;2024-01-16T10:30:52;0;0;
70436;PMS5003;57877;39.750;-104.894;2024-01-16T10:33:16;0;0;
70436;PMS5003;57877;39.750;-104.894;2024-01-16T10:35:41;0;0;
70436;PMS5003;57877;39.750;-104.894;2024-01-16T10:38:07;0;0;
70436;PMS5003;57877;39.750;-104.894;2024-01-16T10:40:32;0;0;
70436;PMS5003;57877;39.750;-104.894;2024-01-16T10:42:58;0;0;
70436;PMS5003;57877;39.750;-104.894;2024-01-16T10:45:24;0;0;
70436;PMS5003;57877;39.750;-104.894;2024-01-16T10:47:49;0;0;
70436;PMS5003;57877;39.750;-104.894;2024-01-16T10:50:15;0;0;
70436;PMS5003;57877;39.750;-104.894;2024-01-16T10:52:42;0;0;
70436;PMS5003;57877;39.750;-104.894;2024-01-16T10:55:06;0;0;
70436;PMS5003;57877;39.750;-104.894;2024-01-16T10:57:32;0;0;
70436;PMS5003;57877;39.750;-104.894;2024-01-16T10:59:59;1;0;
70436;PMS5003;57877;39.750;-104.894;2024-01-16T11:02:23;0;0;
70436;PMS5003;57877;39.750;-104.894;2024-01-16T11:04:49;0;0;
70436;PMS5003;57877;39.750;-104.894;2024-01-16T11:07:14;0;0;
70436;PMS5003;57877;39.750;-104.894;2024-01-16T11:09:40;0;0;
70436;PMS5003;57877;39.750;-104.894;2024-01-16T11:12:05;0;0;
70436;PMS5003;57877;39.750;-104.894;2024-01-16T11:14:30;0;0;
70436;PMS5003;57877;39.750;-104.894;2024-01-16T11:16:56;1;1;
70436;PMS5003;57877;39.750;-104.894;2024-01-16T11:19:22;0;0;
70436;PMS5003;57877;39.750;-104.894;2024-01-16T11:21:47;0;0;
70436;PMS5003;57877;39.750;-104.894;2024-01-16T11:24:13;0;0;
70436;PMS5003;57877;39.750;-104.894;2024-01-16T11:26:39;1;0;
70436;PMS5003;57877;39.750;-104.894;2024-01-16T11:31:30;1;0;
70436;PMS5003;57877;39.750;-104.894;2024-01-16T11:33:55;0;0;
70436;PMS5003;57877;39.750;-104.894;2024-01-16T11:38:46;0;0;
70436;PMS5003;57877;39.750;-104.894;2024-01-16T11:43:37;0;0;
70436;PMS5003;57877;39.750;-104.894;2024-01-16T11:46:04;0;0;
70436;PMS5003;57877;39.750;-104.894;2024-01-16T11:48:28;0;0;
70436;PMS5003;57877;39.750;-104.894;2024-01-16T11:50:54;0;0;
70436;PMS5003;57877;39.750;-104.894;2024-01-16T11:56:02;0;0;
70436;PMS5003;57877;39.750;-104.894;2024-01-16T12:00:36;0;0;
70436;PMS5003;57877;39.750;-104.894;2024-01-16T12:03:02;0;0;
70436;PMS5003;57877;39.750;-104.894;2024-01-16T12:05:28;0;0;
70436;PMS5003;57877;39.750;-104.894;2024-01-16T12:07:53;0;0;
70436;PMS5003;57877;39.750;-104.894;2024-01-16T12:10:19;0;0;
70436;PMS5003;57877;39.750;-104.894;2024-01-16T12:12:45;0;0;
70436;PMS5003;57877;39.750;-104.894;2024-01-16T12:15:13;0;0;
70436;PMS5003;57877;39.750;-104.894;2024-01-16T12:17:35;0;0;
70436;PMS5003;57877;39.750;-104.894;2024-01-16T12:20:09;0;0;
70436;PMS5003;57877;39.750;-104.894;2024-01-16T12:22:26;0;0;
70436;PMS5003;57877;39.750;-104.894;2024-01-16T12:24:55;0;0;
70436;PMS5003;57877;39.750;-104.894;2024-01-16T12:27:17;0;0;
70436;PMS5003;57877;39.750;-104.894;2024-01-16T12:29:43;0;0;
70436;PMS5003;57877;39.750;-104.894;2024-01-16T12:32:09;0;0;
70436;PMS5003;57877;39.750;-104.894;2024-01-16T12:34:34;0;0;
70436;PMS5003;57877;39.750;-104.894;2024-01-16T12:37:04;0;0;
70436;PMS5003;57877;39.750;-104.894;2024-01-16T12:39:25;0;0;
70436;PMS5003;57877;39.750;-104.894;2024-01-16T12:41:50;0;0;
70436;PMS5003;57877;39.750;-104.894;2024-01-16T12:44:16;0;0;
70436;PMS5003;57877;39.750;-104.894;2024-01-16T12:46:41;0;0;
70436;PMS5003;57877;39.750;-104.894;2024-01-16T12:49:07;0;0;
70436;PMS5003;57877;39.750;-104.894;2024-01-16T12:51:33;0;0;
70436;PMS5003;57877;39.750;-104.894;2024-01-16T12:56:23;0;0;
70436;PMS5003;57877;39.750;-104.894;2024-01-16T12:58:49;0;0;
70436;PMS5003;57877;39.750;-104.894;2024-01-16T13:03:40;0;0;
70436;PMS5003;57877;39.750;-104.894;2024-01-16T13:06:05;0;0;
70436;PMS5003;57877;39.750;-104.894;2024-01-16T13:08:31;0;0;
70436;PMS5003;57877;39.750;-104.894;2024-01-16T13:13:22;0;0;
70436;PMS5003;57877;39.750;-104.894;2024-01-16T13:15:47;0;0;
70436;PMS5003;57877;39.750;-104.894;2024-01-16T13:18:18;0;0;
70436;PMS5003;57877;39.750;-104.894;2024-01-16T13:20:38;0;0;
70436;PMS5003;57877;39.750;-104.894;2024-01-16T13:23:03;0;0;
70436;PMS5003;57877;39.750;-104.894;2024-01-16T13:25:29;0;0;
70436;PMS5003;57877;39.750;-104.894;2024-01-16T13:27:55;0;0;
70436;PMS5003;57877;39.750;-104.894;2024-01-16T13:30:20;0;0;
70436;PMS5003;57877;39.750;-104.894;2024-01-16T13:32:46;0;0;
70436;PMS5003;57877;39.750;-104.894;2024-01-16T13:35:11;0;0;
70436;PMS5003;57877;39.750;-104.894;2024-01-16T13:37:37;0;0;
70436;PMS5003;57877;39.750;-104.894;2024-01-16T13:40:02;0;0;
70436;PMS5003;57877;39.750;-104.894;2024-01-16T13:42:28;0;0;
70436;PMS5003;57877;39.750;-104.894;2024-01-16T13:44:53;0;0;
70436;PMS5003;57877;39.750;-104.894;2024-01-16T13:47:19;0;0;
70436;PMS5003;57877;39.750;-104.894;2024-01-16T13:49:44;0;0;
70436;PMS5003;57877;39.750;-104.894;2024-01-16T13:52:10;0;0;
70436;PMS5003;57877;39.750;-104.894;2024-01-16T13:54:36;0;0;
70436;PMS5003;57877;39.750;-104.894;2024-01-16T13:57:01;0;0;
70436;PMS5003;57877;39.750;-104.894;2024-01-16T13:59:26;0;0;
70436;PMS5003;57877;39.750;-104.894;2024-01-16T14:01:52;0;0;
70436;PMS5003;57877;39.750;-104.894;2024-01-16T14:04:17;0;0;
70436;PMS5003;57877;39.750;-104.894;2024-01-16T14:06:43;0;0;
70436;PMS5003;57877;39.750;-104.894;2024-01-16T14:09:08;0;0;
70436;PMS5003;57877;39.750;-104.894;2024-01-16T14:11:33;0;0;
70436;PMS5003;57877;39.750;-104.894;2024-01-16T14:13:59;0;0;
70436;PMS5003;57877;39.750;-104.894;2024-01-16T14:16:24;0;0;
70436;PMS5003;57877;39.750;-104.894;2024-01-16T14:18:50;0;0;
70436;PMS5003;57877;39.750;-104.894;2024-01-16T14:21:15;0;0;
70436;PMS5003;57877;39.750;-104.894;2024-01-16T14:23:41;0;0;
70436;PMS5003;57877;39.750;-104.894;2024-01-16T14:26:06;0;0;
70436;PMS5003;57877;39.750;-104.894;2024-01-16T14:28:32;0;0;
70436;PMS5003;57877;39.750;-104.894;2024-01-16T14:30:57;0;0;
70436;PMS5003;57877;39.750;-104.894;2024-01-16T14:33:23;0;0;
70436;PMS5003;57877;39.750;-104.894;2024-01-16T14:35:49;0;0;
70436;PMS5003;57877;39.750;-104.894;2024-01-16T14:38:13;0;0;
70436;PMS5003;57877;39.750;-104.894;2024-01-16T14:40:39;0;0;
70436;PMS5003;57877;39.750;-104.894;2024-01-16T14:43:05;0;0;
70436;PMS5003;57877;39.750;-104.894;2024-01-16T14:45:30;0;0;
70436;PMS5003;57877;39.750;-104.894;2024-01-16T14:47:55;0;0;
70436;PMS5003;57877;39.750;-104.894;2024-01-16T14:50:21;0;0;
70436;PMS5003;57877;39.750;-104.894;2024-01-16T14:52:47;0;0;
70436;PMS5003;57877;39.750;-104.894;2024-01-16T14:55:12;0;0;
70436;PMS5003;57877;39.750;-104.894;2024-01-16T14:57:37;0;0;
70436;PMS5003;57877;39.750;-104.894;2024-01-16T15:00:03;0;0;
70436;PMS5003;57877;39.750;-104.894;2024-01-16T15:02:28;0;0;
70436;PMS5003;57877;39.750;-104.894;2024-01-16T15:04:54;0;0;
70436;PMS5003;57877;39.750;-104.894;2024-01-16T15:07:19;0;0;
70436;PMS5003;57877;39.750;-104.894;2024-01-16T15:09:45;0;0;
70436;PMS5003;57877;39.750;-104.894;2024-01-16T15:12:10;0;0;
70436;PMS5003;57877;39.750;-104.894;2024-01-16T15:14:36;0;0;
70436;PMS5003;57877;39.750;-104.894;2024-01-16T15:17:01;0;0;
70436;PMS5003;57877;39.750;-104.894;2024-01-16T15:19:27;0;0;
70436;PMS5003;57877;39.750;-104.894;2024-01-16T15:21:52;0;0;
70436;PMS5003;57877;39.750;-104.894;2024-01-16T15:24:17;0;0;
70436;PMS5003;57877;39.750;-104.894;2024-01-16T15:26:43;0;0;
70436;PMS5003;57877;39.750;-104.894;2024-01-16T15:29:08;0;0;
70436;PMS5003;57877;39.750;-104.894;2024-01-16T15:31:34;0;0;
70436;PMS5003;57877;39.750;-104.894;2024-01-16T15:33:59;2;2;
70436;PMS5003;57877;39.750;-104.894;2024-01-16T15:36:24;0;0;
70436;PMS5003;57877;39.750;-104.894;2024-01-16T15:38:50;1;1;
70436;PMS5003;57877;39.750;-104.894;2024-01-16T15:41:15;0;0;
70436;PMS5003;57877;39.750;-104.894;2024-01-16T15:43:40;0;0;
70436;PMS5003;57877;39.750;-104.894;2024-01-16T15:46:06;0;0;
70436;PMS5003;57877;39.750;-104.894;2024-01-16T15:48:31;0;0;
70436;PMS5003;57877;39.750;-104.894;2024-01-16T15:50:56;0;0;
70436;PMS5003;57877;39.750;-104.894;2024-01-16T15:53:22;0;0;
70436;PMS5003;57877;39.750;-104.894;2024-01-16T15:55:47;0;0;
70436;PMS5003;57877;39.750;-104.894;2024-01-16T15:58:12;1;0;
70436;PMS5003;57877;39.750;-104.894;2024-01-16T16:00:38;0;0;
70436;PMS5003;57877;39.750;-104.894;2024-01-16T16:03:03;0;0;
70436;PMS5003;57877;39.750;-104.894;2024-01-16T16:05:28;0;0;